NFTL/HPA METAR and TAF weather

Enter ICAO airport designator
Station Type Date Time Source
NFTL METAR 2021/01/27 12:00 UTC NOAA

NFTL 271200Z 04004KT 9999 -SHRA FEW009 SCT017TCU OVC100 25/24 Q1006


Station Type Date Time Source
NFTL Decoded METAR 2021/01/27 12:00 UTC NOAA

Haapai, Tonga (NFTL) 19-48S 174-21W 3M
Jan 27, 2021 - 07:00 AM EST / 2021.01.27 1200 UTC
Wind: from the NE (040 degrees) at 5 MPH (4 KT):0
Visibility: greater than 7 mile(s):0
Sky conditions: overcast
Weather: light rain showers; Towering cumulus clouds observed
Temperature: 77 F (25 C)
Dew Point: 75 F (24 C)
Relative Humidity: 94%
Pressure (altimeter): 29.71 in. Hg (1006 hPa)
ob: NFTL 271200Z 04004KT 9999 -SHRA FEW009 SCT017TCU OVC100 25/24 Q1006
cycle: 12

Station Type Date Time Source
NFTL TAF 2018/02/21 17:36 UTC NOAA

TAF NFTL 211605Z 2117/2208 12010KT 9999 SCT018

Example: see airport list